Time,TemperatureF,DewpointF,PressureIn,WindDirection,WindDirectionDegrees,WindSpeedMPH,WindSpeedGustMPH,Humidity,HourlyPrecipIn,Conditions,Clouds,dailyrainin,SolarRadiationWatts/m^2,SoftwareType,DateUTC
2013-01-06 14:32:00,23.0,12.0,30.03,South,171,4.0,5.0,61,-99.99,,,-99.99,246.500000,,2013-01-06 21:32:00,
2013-01-06 14:42:00,24.0,13.0,30.03,SW,230,4.0,5.0,62,-99.99,,,-99.99,223.100006,,2013-01-06 21:42:00,
2013-01-06 14:52:00,24.0,14.0,30.02,SW,222,4.0,5.0,63,-99.99,,,-99.99,243.800003,,2013-01-06 21:52:00,
2013-01-06 15:02:00,24.0,14.0,30.02,SW,230,5.0,6.0,63,-99.99,,,-99.99,243.199997,,2013-01-06 22:02:00,
2013-01-06 15:12:00,25.0,14.0,30.02,SW,235,5.0,6.0,62,-99.99,,,-99.99,239.699997,,2013-01-06 22:12:00,
2013-01-06 15:22:00,25.0,14.0,30.02,SW,215,4.0,4.0,64,-99.99,,,-99.99,201.199997,,2013-01-06 22:22:00,
2013-01-06 15:32:00,25.0,13.0,30.02,WSW,248,4.0,4.0,61,-99.99,,,-99.99,153.100006,,2013-01-06 22:32:00,
2013-01-06 15:42:00,24.0,13.0,30.02,WSW,258,4.0,4.0,61,-99.99,,,-99.99,115.500000,,2013-01-06 22:42:00,
2013-01-06 15:52:00,24.0,13.0,30.02,SW,235,5.0,6.0,62,-99.99,,,-99.99,131.699997,,2013-01-06 22:52:00,
2013-01-06 16:02:00,24.0,13.0,30.02,WSW,245,2.0,3.0,61,-99.99,,,-99.99,105.699997,,2013-01-06 23:02:00,
2013-01-06 16:12:00,24.0,13.0,30.03,NNE,18,1.0,1.0,63,-99.99,,,-99.99,100.000000,,2013-01-06 23:12:00,
2013-01-06 16:22:00,24.0,14.0,30.03,NE,49,1.0,3.0,63,-99.99,,,-99.99,82.599998,,2013-01-06 23:22:00,
2013-01-06 16:32:00,24.0,14.0,30.04,NNE,28,2.0,2.0,64,-99.99,,,-99.99,158.500000,,2013-01-06 23:32:00,
2013-01-06 16:42:00,25.0,13.0,30.04,SW,228,2.0,3.0,60,-99.99,,,-99.99,119.900002,,2013-01-06 23:42:00,
2013-01-06 16:52:00,24.0,13.0,30.04,SW,236,4.0,6.0,61,-99.99,,,-99.99,83.199997,,2013-01-06 23:52:00,
2013-01-06 18:02:00,12.0,5.0,30.05,West,267,6.0,8.0,72,-99.99,,,-99.99,0.000000,,2013-01-07 01:02:00,
2013-01-06 18:11:00,11.0,6.0,30.05,WSW,256,7.0,9.0,77,-99.99,,,-99.99,-0.100000,,2013-01-07 01:11:00,
2013-01-06 18:22:00,12.0,6.0,30.06,SSW,198,6.0,8.0,77,-99.99,,,-99.99,-0.100000,,2013-01-07 01:22:00,
2013-01-06 18:32:00,13.0,7.0,30.06,SSW,195,8.0,9.0,75,-99.99,,,-99.99,-0.100000,,2013-01-07 01:32:00,
2013-01-06 18:42:00,12.0,6.0,30.07,SSW,205,9.0,10.0,75,-99.99,,,-99.99,-0.100000,,2013-01-07 01:42:00,
2013-01-06 18:52:00,11.0,5.0,30.07,SSW,192,10.0,12.0,76,-99.99,,,-99.99,0.000000,,2013-01-07 01:52:00,
2013-01-06 19:01:00,14.0,8.0,30.08,SSW,194,11.0,13.0,76,-99.99,,,-99.99,-0.100000,,2013-01-07 02:01:00,
2013-01-06 19:11:00,15.0,8.0,30.07,South,188,10.0,12.0,72,-99.99,,,-99.99,-0.100000,,2013-01-07 02:11:00,
2013-01-06 19:22:00,15.0,8.0,30.07,South,186,10.0,12.0,72,-99.99,,,-99.99,0.000000,,2013-01-07 02:22:00,
2013-01-06 19:32:00,15.0,8.0,30.08,South,187,9.0,11.0,73,-99.99,,,-99.99,-0.100000,,2013-01-07 02:32:00,
2013-01-06 19:42:00,14.0,7.0,30.09,South,190,9.0,10.0,74,-99.99,,,-99.99,-0.100000,,2013-01-07 02:42:00,
2013-01-06 19:52:00,13.0,7.0,30.09,SSW,194,8.0,9.0,74,-99.99,,,-99.99,0.000000,,2013-01-07 02:52:00,
2013-01-06 20:02:00,13.0,7.0,30.09,South,189,9.0,10.0,76,-99.99,,,-99.99,-0.100000,,2013-01-07 03:02:00,
2013-01-06 20:11:00,14.0,8.0,30.09,South,190,9.0,10.0,74,-99.99,,,-99.99,-0.100000,,2013-01-07 03:11:00,
2013-01-06 20:22:00,14.0,7.0,30.08,SSW,193,11.0,13.0,74,-99.99,,,-99.99,-0.100000,,2013-01-07 03:22:00,
2013-01-06 20:32:00,13.0,7.0,30.08,SSW,194,11.0,12.0,75,-99.99,,,-99.99,0.000000,,2013-01-07 03:32:00,
2013-01-06 20:42:00,13.0,7.0,30.10,WSW,242,5.0,6.0,76,-99.99,,,-99.99,-0.100000,,2013-01-07 03:42:00,
2013-01-06 20:52:00,14.0,8.0,30.10,West,270,6.0,7.0,76,-99.99,,,-99.99,0.000000,,2013-01-07 03:52:00,
2013-01-06 21:02:00,11.0,5.0,30.10,WSW,241,6.0,8.0,75,-99.99,,,-99.99,0.000000,,2013-01-07 04:02:00,
2013-01-06 21:12:00,9.0,4.0,30.09,South,187,4.0,4.0,80,-99.99,,,-99.99,0.000000,,2013-01-07 04:12:00,
2013-01-06 21:52:00,8.0,3.0,30.08,ENE,73,2.0,4.0,79,-99.99,,,-99.99,0.000000,,2013-01-07 04:52:00,
2013-01-06 22:02:00,6.0,1.0,30.09,ENE,78,4.0,4.0,79,-99.99,,,-99.99,0.000000,,2013-01-07 05:02:00,
2013-01-06 22:12:00,4.0,0.0,30.09,ESE,113,5.0,8.0,79,-99.99,,,-99.99,-0.100000,,2013-01-07 05:12:00,
2013-01-06 22:22:00,6.0,1.0,30.09,ESE,105,4.0,4.0,80,-99.99,,,-99.99,-0.100000,,2013-01-07 05:22:00,
2013-01-06 22:32:00,6.0,1.0,30.09,ESE,121,6.0,9.0,78,-99.99,,,-99.99,-0.100000,,2013-01-07 05:32:00,
2013-01-06 22:42:00,6.0,1.0,30.10,East,95,4.0,4.0,80,-99.99,,,-99.99,-0.100000,,2013-01-07 05:42:00,
2013-01-06 22:52:00,6.0,1.0,30.11,ESE,107,5.0,6.0,78,-99.99,,,-99.99,-0.100000,,2013-01-07 05:52:00,
2013-01-06 23:02:00,3.0,-2.0,30.11,East,101,6.0,7.0,78,-99.99,,,-99.99,-0.100000,,2013-01-07 06:02:00,
2013-01-06 23:11:00,3.0,-2.0,30.11,ESE,108,6.0,7.0,79,-99.99,,,-99.99,0.000000,,2013-01-07 06:11:00,
2013-01-06 23:22:00,3.0,-1.0,30.11,SSE,149,5.0,5.0,80,-99.99,,,-99.99,-0.100000,,2013-01-07 06:22:00,
2013-01-06 23:32:00,5.0,1.0,30.12,South,182,6.0,7.0,82,-99.99,,,-99.99,-0.100000,,2013-01-07 06:32:00,
2013-01-06 23:42:00,5.0,1.0,30.12,South,180,6.0,6.0,82,-99.99,,,-99.99,-0.100000,,2013-01-07 06:42:00,
2013-01-06 23:52:00,6.0,2.0,30.13,South,184,6.0,8.0,83,-99.99,,,-99.99,-0.100000,,2013-01-07 06:52:00,